Lewes — WDC9301 — position and weather

sailwx.info

Track history (hours):
 
Tides and Currents Weather Stations Pressure Air Temp Water Temp Dewpoint Dewpoint Depression Visibility Wind Speed Wind Dir Waves Ship Positions

Lewes

Owner: OVERFALLS LEASING LLC, LEWES, DE. More information available from US FCC via Universal Licensing System and Coast Guard Vessel Documentation Center.

Last reported at 2018-Jan-12 05:20 UTC. Time now 2018-Jan-18 15:27 UTC.
Position N 38°47' W 075°07'.

Type: Pilot. MMSI: 367100370.

Date/timePositionNaut miles runAvg speedWind from/ knotsBaromVisibWave heightAir tempDewpointWater temp
2018-Jan-12 05:20N 38°47' W 075°07'0 0.0
2018-Jan-12 05:00N 38°47' W 075°07'3 4.6
2018-Jan-12 04:26N 38°49' W 075°05'1 0.2
2018-Jan-12 00:20N 38°49' W 075°06'2 0.1
2018-Jan-11 04:09N 38°47' W 075°07'416.5
2018-Jan-11 03:54N 38°51' W 075°06'4 3.4
2018-Jan-11 02:41N 38°47' W 075°07'0 0.1
2018-Jan-11 02:27N 38°47' W 075°07'0 0.0
2018-Jan-11 02:00N 38°47' W 075°07'0 0.0
2018-Jan-11 01:25N 38°47' W 075°07'0 0.0
2018-Jan-11 00:59N 38°47' W 075°07'0 0.0
2018-Jan-10 23:31N 38°47' W 075°07'0 0.0
2018-Jan-10 23:11N 38°47' W 075°07'2 0.3
2018-Jan-10 16:29N 38°48' W 075°10'0 0.0
2018-Jan-10 14:54N 38°48' W 075°10'0 0.0
2018-Jan-10 14:30N 38°48' W 075°10'4 5.6
2018-Jan-10 13:44N 38°48' W 075°05'2 4.8
2018-Jan-10 13:20N 38°48' W 075°07'1 0.4
2018-Jan-10 10:38N 38°47' W 075°07'0 0.0
2018-Jan-09 14:07N 38°47' W 075°07'0 0.0
2018-Jan-09 13:55N 38°47' W 075°07'0 0.0
2018-Jan-09 12:24N 38°47' W 075°07'4 9.9
2018-Jan-09 12:00N 38°48' W 075°02'8 0.4
2018-Jan-08 16:01N 38°54' W 075°09'221.9
2018-Jan-08 15:54N 38°56' W 075°11'613.5
2018-Jan-08 15:29N 39°01' W 075°14'917.0
2018-Jan-08 14:57N 38°53' W 075°08'  
2018-Jan-04 02:05N 38°52' W 075°06'  
Track history (hours):
 
Tides and Currents Weather Stations Pressure Air Temp Water Temp Dewpoint Dewpoint Depression Visibility Wind Speed Wind Dir Waves Ship Positions

Lewes

Owner: OVERFALLS LEASING LLC, LEWES, DE. More information available from US FCC via Universal Licensing System and Coast Guard Vessel Documentation Center.

Last reported at 2018-Jan-12 05:20 UTC. Time now 2018-Jan-18 15:27 UTC.
Position N 38°47' W 075°07'.

Type: Pilot. MMSI: 367100370.

Date/timePositionNaut miles runAvg speedWind from/ knotsBaromVisibWave heightAir tempDewpointWater temp
2018-Jan-12 05:20N 38°47' W 075°07'0 0.0
2018-Jan-12 05:00N 38°47' W 075°07'3 4.6
2018-Jan-12 04:26N 38°49' W 075°05'1 0.2
2018-Jan-12 00:20N 38°49' W 075°06'2 0.1
2018-Jan-11 04:09N 38°47' W 075°07'416.5
2018-Jan-11 03:54N 38°51' W 075°06'4 3.4
2018-Jan-11 02:41N 38°47' W 075°07'0 0.1
2018-Jan-11 02:27N 38°47' W 075°07'0 0.0
2018-Jan-11 02:00N 38°47' W 075°07'0 0.0
2018-Jan-11 01:25N 38°47' W 075°07'0 0.0
2018-Jan-11 00:59N 38°47' W 075°07'0 0.0
2018-Jan-10 23:31N 38°47' W 075°07'0 0.0
2018-Jan-10 23:11N 38°47' W 075°07'2 0.3
2018-Jan-10 16:29N 38°48' W 075°10'0 0.0
2018-Jan-10 14:54N 38°48' W 075°10'0 0.0
2018-Jan-10 14:30N 38°48' W 075°10'4 5.6
2018-Jan-10 13:44N 38°48' W 075°05'2 4.8
2018-Jan-10 13:20N 38°48' W 075°07'1 0.4
2018-Jan-10 10:38N 38°47' W 075°07'0 0.0
2018-Jan-09 14:07N 38°47' W 075°07'0 0.0
2018-Jan-09 13:55N 38°47' W 075°07'0 0.0
2018-Jan-09 12:24N 38°47' W 075°07'4 9.9
2018-Jan-09 12:00N 38°48' W 075°02'8 0.4
2018-Jan-08 16:01N 38°54' W 075°09'221.9
2018-Jan-08 15:54N 38°56' W 075°11'613.5
2018-Jan-08 15:29N 39°01' W 075°14'917.0
2018-Jan-08 14:57N 38°53' W 075°08'  
2018-Jan-04 02:05N 38°52' W 075°06'  

Dump ship's entire track history